sensor_id;sensor_type;location;lat;lon;timestamp;P1;durP1;ratioP1;P2;durP2;ratioP2
31424;SDS011;18054;51.572;7.372;2024-02-15T00:00:15;16.35;;;8.30;;
31424;SDS011;18054;51.572;7.372;2024-02-15T00:02:43;16.70;;;8.43;;
31424;SDS011;18054;51.572;7.372;2024-02-15T00:05:29;19.00;;;8.63;;
31424;SDS011;18054;51.572;7.372;2024-02-15T00:07:57;19.13;;;8.27;;
31424;SDS011;18054;51.572;7.372;2024-02-15T00:10:26;20.90;;;8.77;;
31424;SDS011;18054;51.572;7.372;2024-02-15T00:12:54;22.33;;;9.18;;
31424;SDS011;18054;51.572;7.372;2024-02-15T00:17:49;25.55;;;10.27;;
31424;SDS011;18054;51.572;7.372;2024-02-15T00:20:18;22.98;;;8.80;;
31424;SDS011;18054;51.572;7.372;2024-02-15T00:22:47;21.65;;;8.98;;
31424;SDS011;18054;51.572;7.372;2024-02-15T00:25:16;21.02;;;8.43;;
31424;SDS011;18054;51.572;7.372;2024-02-15T00:30:13;20.15;;;9.02;;
31424;SDS011;18054;51.572;7.372;2024-02-15T00:32:43;19.67;;;8.60;;
31424;SDS011;18054;51.572;7.372;2024-02-15T00:35:13;22.52;;;8.63;;
31424;SDS011;18054;51.572;7.372;2024-02-15T00:37:41;17.80;;;8.45;;
31424;SDS011;18054;51.572;7.372;2024-02-15T00:42:37;24.05;;;9.40;;
31424;SDS011;18054;51.572;7.372;2024-02-15T00:45:06;26.67;;;10.27;;
31424;SDS011;18054;51.572;7.372;2024-02-15T00:47:37;17.73;;;9.18;;
31424;SDS011;18054;51.572;7.372;2024-02-15T00:50:07;20.50;;;9.18;;
31424;SDS011;18054;51.572;7.372;2024-02-15T00:52:36;28.45;;;10.40;;
31424;SDS011;18054;51.572;7.372;2024-02-15T00:55:04;20.73;;;10.75;;
31424;SDS011;18054;51.572;7.372;2024-02-15T00:57:32;25.00;;;9.32;;
31424;SDS011;18054;51.572;7.372;2024-02-15T01:00:00;26.70;;;8.98;;
31424;SDS011;18054;51.572;7.372;2024-02-15T01:02:34;22.40;;;9.30;;
31424;SDS011;18054;51.572;7.372;2024-02-15T01:05:02;20.45;;;10.43;;
31424;SDS011;18054;51.572;7.372;2024-02-15T01:07:30;21.38;;;9.57;;
31424;SDS011;18054;51.572;7.372;2024-02-15T01:09:58;17.95;;;9.98;;
31424;SDS011;18054;51.572;7.372;2024-02-15T01:12:25;33.20;;;9.35;;
31424;SDS011;18054;51.572;7.372;2024-02-15T01:14:54;23.33;;;9.73;;
31424;SDS011;18054;51.572;7.372;2024-02-15T01:17:22;18.10;;;9.43;;
31424;SDS011;18054;51.572;7.372;2024-02-15T01:19:51;30.35;;;9.57;;
31424;SDS011;18054;51.572;7.372;2024-02-15T01:22:19;24.58;;;10.13;;
31424;SDS011;18054;51.572;7.372;2024-02-15T01:24:50;22.70;;;11.27;;
31424;SDS011;18054;51.572;7.372;2024-02-15T01:27:17;30.42;;;11.32;;
31424;SDS011;18054;51.572;7.372;2024-02-15T01:29:45;25.00;;;10.80;;
31424;SDS011;18054;51.572;7.372;2024-02-15T01:32:13;19.70;;;11.27;;
31424;SDS011;18054;51.572;7.372;2024-02-15T01:34:40;27.33;;;11.00;;
31424;SDS011;18054;51.572;7.372;2024-02-15T01:37:10;19.10;;;10.82;;
31424;SDS011;18054;51.572;7.372;2024-02-15T01:39:37;26.17;;;12.32;;
31424;SDS011;18054;51.572;7.372;2024-02-15T01:42:06;25.50;;;10.88;;
31424;SDS011;18054;51.572;7.372;2024-02-15T01:44:34;25.77;;;12.10;;
31424;SDS011;18054;51.572;7.372;2024-02-15T01:47:03;23.73;;;11.50;;
31424;SDS011;18054;51.572;7.372;2024-02-15T01:49:31;24.73;;;12.18;;
31424;SDS011;18054;51.572;7.372;2024-02-15T01:56:55;27.50;;;11.40;;
31424;SDS011;18054;51.572;7.372;2024-02-15T01:59:23;26.17;;;11.57;;
31424;SDS011;18054;51.572;7.372;2024-02-15T02:01:51;27.27;;;11.30;;
31424;SDS011;18054;51.572;7.372;2024-02-15T02:06:46;27.83;;;10.05;;
31424;SDS011;18054;51.572;7.372;2024-02-15T02:09:14;25.45;;;10.63;;
31424;SDS011;18054;51.572;7.372;2024-02-15T02:11:42;27.50;;;9.70;;
31424;SDS011;18054;51.572;7.372;2024-02-15T02:14:13;28.38;;;9.60;;
31424;SDS011;18054;51.572;7.372;2024-02-15T02:16:41;31.42;;;9.90;;
31424;SDS011;18054;51.572;7.372;2024-02-15T02:19:08;17.98;;;9.00;;
31424;SDS011;18054;51.572;7.372;2024-02-15T02:21:36;24.52;;;9.20;;
31424;SDS011;18054;51.572;7.372;2024-02-15T02:24:12;30.73;;;10.88;;
31424;SDS011;18054;51.572;7.372;2024-02-15T02:26:41;21.35;;;8.60;;
31424;SDS011;18054;51.572;7.372;2024-02-15T02:29:10;18.65;;;8.68;;
31424;SDS011;18054;51.572;7.372;2024-02-15T02:31:37;29.73;;;8.90;;
31424;SDS011;18054;51.572;7.372;2024-02-15T02:34:05;18.92;;;9.05;;
31424;SDS011;18054;51.572;7.372;2024-02-15T02:36:34;23.77;;;8.98;;
31424;SDS011;18054;51.572;7.372;2024-02-15T02:39:02;21.85;;;9.05;;
31424;SDS011;18054;51.572;7.372;2024-02-15T02:41:30;25.33;;;7.97;;
31424;SDS011;18054;51.572;7.372;2024-02-15T02:44:00;16.80;;;7.88;;
31424;SDS011;18054;51.572;7.372;2024-02-15T02:46:27;21.38;;;8.77;;
31424;SDS011;18054;51.572;7.372;2024-02-15T02:48:55;27.35;;;8.57;;
31424;SDS011;18054;51.572;7.372;2024-02-15T02:53:50;29.08;;;10.35;;
31424;SDS011;18054;51.572;7.372;2024-02-15T02:56:18;24.13;;;9.15;;
31424;SDS011;18054;51.572;7.372;2024-02-15T02:58:46;30.25;;;9.75;;
31424;SDS011;18054;51.572;7.372;2024-02-15T03:01:15;23.90;;;8.93;;
31424;SDS011;18054;51.572;7.372;2024-02-15T03:03:44;25.77;;;9.60;;
31424;SDS011;18054;51.572;7.372;2024-02-15T03:06:12;25.83;;;10.00;;
31424;SDS011;18054;51.572;7.372;2024-02-15T03:08:40;21.30;;;9.98;;
31424;SDS011;18054;51.572;7.372;2024-02-15T03:13:35;28.83;;;10.18;;
31424;SDS011;18054;51.572;7.372;2024-02-15T03:16:03;27.42;;;10.95;;
31424;SDS011;18054;51.572;7.372;2024-02-15T03:18:33;37.38;;;10.80;;
31424;SDS011;18054;51.572;7.372;2024-02-15T03:21:01;24.42;;;10.02;;
31424;SDS011;18054;51.572;7.372;2024-02-15T03:23:30;20.35;;;9.93;;
31424;SDS011;18054;51.572;7.372;2024-02-15T03:26:01;32.30;;;10.68;;
31424;SDS011;18054;51.572;7.372;2024-02-15T03:28:29;19.33;;;10.52;;
31424;SDS011;18054;51.572;7.372;2024-02-15T03:30:57;27.70;;;10.35;;
31424;SDS011;18054;51.572;7.372;2024-02-15T03:33:27;24.75;;;9.73;;
31424;SDS011;18054;51.572;7.372;2024-02-15T03:36:02;25.40;;;10.05;;
31424;SDS011;18054;51.572;7.372;2024-02-15T03:38:29;31.27;;;9.27;;
31424;SDS011;18054;51.572;7.372;2024-02-15T03:40:58;24.52;;;8.45;;
31424;SDS011;18054;51.572;7.372;2024-02-15T03:43:26;22.45;;;7.80;;
31424;SDS011;18054;51.572;7.372;2024-02-15T03:45:53;27.05;;;7.93;;
31424;SDS011;18054;51.572;7.372;2024-02-15T03:48:21;27.77;;;6.65;;
31424;SDS011;18054;51.572;7.372;2024-02-15T03:50:49;16.55;;;6.15;;
31424;SDS011;18054;51.572;7.372;2024-02-15T03:53:18;22.63;;;6.43;;
31424;SDS011;18054;51.572;7.372;2024-02-15T03:55:46;24.23;;;6.78;;
31424;SDS011;18054;51.572;7.372;2024-02-15T03:58:12;24.35;;;6.93;;
31424;SDS011;18054;51.572;7.372;2024-02-15T04:00:41;23.48;;;7.43;;
31424;SDS011;18054;51.572;7.372;2024-02-15T04:03:09;15.93;;;6.30;;
31424;SDS011;18054;51.572;7.372;2024-02-15T04:05:37;19.95;;;5.68;;
31424;SDS011;18054;51.572;7.372;2024-02-15T04:08:06;18.90;;;6.40;;
31424;SDS011;18054;51.572;7.372;2024-02-15T04:10:35;23.20;;;6.88;;
31424;SDS011;18054;51.572;7.372;2024-02-15T04:13:03;15.77;;;5.70;;
31424;SDS011;18054;51.572;7.372;2024-02-15T04:15:31;23.02;;;6.43;;
31424;SDS011;18054;51.572;7.372;2024-02-15T04:18:00;22.80;;;6.97;;
31424;SDS011;18054;51.572;7.372;2024-02-15T04:20:28;16.23;;;6.07;;
31424;SDS011;18054;51.572;7.372;2024-02-15T04:25:26;17.40;;;5.78;;
31424;SDS011;18054;51.572;7.372;2024-02-15T04:27:56;22.10;;;6.65;;
31424;SDS011;18054;51.572;7.372;2024-02-15T04:30:29;26.98;;;6.50;;
31424;SDS011;18054;51.572;7.372;2024-02-15T04:32:58;18.65;;;6.53;;
31424;SDS011;18054;51.572;7.372;2024-02-15T04:35:26;16.20;;;5.30;;
31424;SDS011;18054;51.572;7.372;2024-02-15T04:37:54;15.25;;;5.93;;
31424;SDS011;18054;51.572;7.372;2024-02-15T04:40:21;27.00;;;8.35;;
31424;SDS011;18054;51.572;7.372;2024-02-15T04:42:49;24.00;;;5.68;;
31424;SDS011;18054;51.572;7.372;2024-02-15T04:45:18;16.52;;;6.30;;
31424;SDS011;18054;51.572;7.372;2024-02-15T04:47:48;18.58;;;7.50;;
31424;SDS011;18054;51.572;7.372;2024-02-15T04:50:19;17.50;;;6.38;;
31424;SDS011;18054;51.572;7.372;2024-02-15T04:52:47;24.27;;;5.30;;
31424;SDS011;18054;51.572;7.372;2024-02-15T04:55:16;22.58;;;6.40;;
31424;SDS011;18054;51.572;7.372;2024-02-15T04:57:44;13.95;;;5.85;;
31424;SDS011;18054;51.572;7.372;2024-02-15T05:00:14;13.90;;;5.47;;
31424;SDS011;18054;51.572;7.372;2024-02-15T05:02:43;17.23;;;4.88;;
31424;SDS011;18054;51.572;7.372;2024-02-15T05:05:11;15.18;;;5.28;;
31424;SDS011;18054;51.572;7.372;2024-02-15T05:07:40;18.38;;;5.57;;
31424;SDS011;18054;51.572;7.372;2024-02-15T05:10:09;17.80;;;5.07;;
31424;SDS011;18054;51.572;7.372;2024-02-15T05:17:36;15.35;;;4.55;;
31424;SDS011;18054;51.572;7.372;2024-02-15T05:20:10;18.58;;;5.13;;
31424;SDS011;18054;51.572;7.372;2024-02-15T05:22:40;16.52;;;4.55;;
31424;SDS011;18054;51.572;7.372;2024-02-15T05:25:14;14.20;;;4.20;;
31424;SDS011;18054;51.572;7.372;2024-02-15T05:30:11;13.98;;;5.55;;
31424;SDS011;18054;51.572;7.372;2024-02-15T05:32:39;14.30;;;3.90;;
31424;SDS011;18054;51.572;7.372;2024-02-15T05:35:12;17.02;;;4.07;;
31424;SDS011;18054;51.572;7.372;2024-02-15T05:37:39;15.30;;;4.50;;
31424;SDS011;18054;51.572;7.372;2024-02-15T05:40:07;16.25;;;5.85;;
31424;SDS011;18054;51.572;7.372;2024-02-15T05:42:41;17.90;;;4.80;;
31424;SDS011;18054;51.572;7.372;2024-02-15T05:45:27;13.07;;;4.13;;
31424;SDS011;18054;51.572;7.372;2024-02-15T05:47:59;14.93;;;4.38;;
31424;SDS011;18054;51.572;7.372;2024-02-15T05:52:57;21.45;;;5.82;;
31424;SDS011;18054;51.572;7.372;2024-02-15T05:55:25;20.67;;;10.32;;
31424;SDS011;18054;51.572;7.372;2024-02-15T05:57:57;28.90;;;9.32;;
31424;SDS011;18054;51.572;7.372;2024-02-15T06:00:25;21.75;;;10.30;;
31424;SDS011;18054;51.572;7.372;2024-02-15T06:02:53;17.10;;;8.30;;
31424;SDS011;18054;51.572;7.372;2024-02-15T06:05:21;18.08;;;7.90;;
31424;SDS011;18054;51.572;7.372;2024-02-15T06:07:50;20.15;;;8.82;;
31424;SDS011;18054;51.572;7.372;2024-02-15T06:12:47;21.27;;;6.40;;
31424;SDS011;18054;51.572;7.372;2024-02-15T06:15:15;12.38;;;3.85;;
31424;SDS011;18054;51.572;7.372;2024-02-15T06:17:44;20.60;;;4.10;;
31424;SDS011;18054;51.572;7.372;2024-02-15T06:20:12;10.70;;;5.10;;
31424;SDS011;18054;51.572;7.372;2024-02-15T06:22:42;17.98;;;7.80;;
31424;SDS011;18054;51.572;7.372;2024-02-15T06:25:10;25.33;;;10.40;;
31424;SDS011;18054;51.572;7.372;2024-02-15T06:27:38;13.38;;;5.30;;
31424;SDS011;18054;51.572;7.372;2024-02-15T06:30:09;16.88;;;9.38;;
31424;SDS011;18054;51.572;7.372;2024-02-15T06:32:57;21.23;;;10.05;;
31424;SDS011;18054;51.572;7.372;2024-02-15T06:35:43;11.02;;;5.18;;
31424;SDS011;18054;51.572;7.372;2024-02-15T06:38:28;13.05;;;2.83;;
31424;SDS011;18054;51.572;7.372;2024-02-15T06:41:14;12.73;;;2.78;;
31424;SDS011;18054;51.572;7.372;2024-02-15T06:43:42;7.57;;;2.58;;
31424;SDS011;18054;51.572;7.372;2024-02-15T06:46:11;13.70;;;3.95;;
31424;SDS011;18054;51.572;7.372;2024-02-15T06:48:41;9.40;;;2.85;;
31424;SDS011;18054;51.572;7.372;2024-02-15T06:51:11;6.93;;;2.25;;
31424;SDS011;18054;51.572;7.372;2024-02-15T06:53:40;9.75;;;2.97;;
31424;SDS011;18054;51.572;7.372;2024-02-15T07:01:03;6.43;;;2.90;;
31424;SDS011;18054;51.572;7.372;2024-02-15T07:03:33;13.40;;;3.42;;
31424;SDS011;18054;51.572;7.372;2024-02-15T07:06:00;12.25;;;3.47;;
31424;SDS011;18054;51.572;7.372;2024-02-15T07:08:29;16.98;;;3.50;;
31424;SDS011;18054;51.572;7.372;2024-02-15T07:10:59;10.93;;;2.83;;
31424;SDS011;18054;51.572;7.372;2024-02-15T07:13:28;15.13;;;3.80;;
31424;SDS011;18054;51.572;7.372;2024-02-15T07:15:55;12.48;;;3.72;;
31424;SDS011;18054;51.572;7.372;2024-02-15T07:18:23;16.58;;;3.10;;
31424;SDS011;18054;51.572;7.372;2024-02-15T07:20:56;14.98;;;3.85;;
31424;SDS011;18054;51.572;7.372;2024-02-15T07:23:26;14.88;;;3.38;;
31424;SDS011;18054;51.572;7.372;2024-02-15T07:25:53;13.43;;;3.70;;
31424;SDS011;18054;51.572;7.372;2024-02-15T07:28:21;15.27;;;4.10;;
31424;SDS011;18054;51.572;7.372;2024-02-15T07:33:17;11.93;;;3.10;;
31424;SDS011;18054;51.572;7.372;2024-02-15T07:35:47;17.88;;;4.05;;
31424;SDS011;18054;51.572;7.372;2024-02-15T07:38:18;11.55;;;3.80;;
31424;SDS011;18054;51.572;7.372;2024-02-15T07:40:49;15.90;;;4.15;;
31424;SDS011;18054;51.572;7.372;2024-02-15T07:43:16;17.15;;;3.95;;
31424;SDS011;18054;51.572;7.372;2024-02-15T07:45:44;16.50;;;4.18;;
31424;SDS011;18054;51.572;7.372;2024-02-15T07:48:14;16.98;;;4.28;;
31424;SDS011;18054;51.572;7.372;2024-02-15T07:50:42;11.65;;;3.67;;
31424;SDS011;18054;51.572;7.372;2024-02-15T07:53:11;15.10;;;3.80;;
31424;SDS011;18054;51.572;7.372;2024-02-15T07:55:41;13.80;;;4.10;;
31424;SDS011;18054;51.572;7.372;2024-02-15T07:58:10;10.45;;;3.95;;
31424;SDS011;18054;51.572;7.372;2024-02-15T08:00:39;13.77;;;3.80;;
31424;SDS011;18054;51.572;7.372;2024-02-15T08:03:07;9.23;;;3.67;;
31424;SDS011;18054;51.572;7.372;2024-02-15T08:05:35;14.32;;;3.70;;
31424;SDS011;18054;51.572;7.372;2024-02-15T08:08:04;14.80;;;4.50;;
31424;SDS011;18054;51.572;7.372;2024-02-15T08:10:32;12.98;;;3.58;;
31424;SDS011;18054;51.572;7.372;2024-02-15T08:13:02;14.57;;;4.20;;
31424;SDS011;18054;51.572;7.372;2024-02-15T08:15:29;10.88;;;4.22;;
31424;SDS011;18054;51.572;7.372;2024-02-15T08:17:58;11.57;;;3.38;;
31424;SDS011;18054;51.572;7.372;2024-02-15T08:22:57;16.17;;;3.83;;
31424;SDS011;18054;51.572;7.372;2024-02-15T08:25:26;27.42;;;3.80;;
31424;SDS011;18054;51.572;7.372;2024-02-15T08:27:54;12.55;;;4.18;;
31424;SDS011;18054;51.572;7.372;2024-02-15T08:30:23;13.05;;;3.58;;
31424;SDS011;18054;51.572;7.372;2024-02-15T08:32:51;8.25;;;2.70;;
31424;SDS011;18054;51.572;7.372;2024-02-15T08:35:21;14.77;;;2.92;;
31424;SDS011;18054;51.572;7.372;2024-02-15T08:37:49;13.98;;;3.13;;
31424;SDS011;18054;51.572;7.372;2024-02-15T08:40:19;16.25;;;2.85;;
31424;SDS011;18054;51.572;7.372;2024-02-15T08:42:52;8.90;;;2.63;;
31424;SDS011;18054;51.572;7.372;2024-02-15T08:45:20;12.98;;;3.75;;
31424;SDS011;18054;51.572;7.372;2024-02-15T08:50:17;10.65;;;2.78;;
31424;SDS011;18054;51.572;7.372;2024-02-15T08:52:46;15.48;;;2.58;;
31424;SDS011;18054;51.572;7.372;2024-02-15T08:57:42;13.43;;;2.95;;
31424;SDS011;18054;51.572;7.372;2024-02-15T09:00:11;15.75;;;2.42;;
31424;SDS011;18054;51.572;7.372;2024-02-15T09:02:42;11.88;;;2.63;;
31424;SDS011;18054;51.572;7.372;2024-02-15T09:05:10;12.82;;;2.55;;
31424;SDS011;18054;51.572;7.372;2024-02-15T09:07:42;8.07;;;2.75;;
31424;SDS011;18054;51.572;7.372;2024-02-15T09:10:10;10.27;;;2.50;;
31424;SDS011;18054;51.572;7.372;2024-02-15T09:12:39;12.98;;;3.28;;
31424;SDS011;18054;51.572;7.372;2024-02-15T09:15:08;14.25;;;3.20;;
31424;SDS011;18054;51.572;7.372;2024-02-15T09:17:37;10.77;;;2.47;;
31424;SDS011;18054;51.572;7.372;2024-02-15T09:20:07;7.80;;;2.22;;
31424;SDS011;18054;51.572;7.372;2024-02-15T09:22:42;15.48;;;2.75;;
31424;SDS011;18054;51.572;7.372;2024-02-15T09:25:12;11.32;;;2.60;;
31424;SDS011;18054;51.572;7.372;2024-02-15T09:27:41;9.32;;;2.22;;
31424;SDS011;18054;51.572;7.372;2024-02-15T09:32:36;10.57;;;2.38;;
31424;SDS011;18054;51.572;7.372;2024-02-15T09:35:05;11.07;;;2.97;;
31424;SDS011;18054;51.572;7.372;2024-02-15T09:37:34;9.25;;;2.47;;
31424;SDS011;18054;51.572;7.372;2024-02-15T09:40:04;12.10;;;2.88;;
31424;SDS011;18054;51.572;7.372;2024-02-15T09:42:33;8.00;;;1.92;;
31424;SDS011;18054;51.572;7.372;2024-02-15T09:45:02;10.85;;;2.83;;
31424;SDS011;18054;51.572;7.372;2024-02-15T09:49:58;13.75;;;2.28;;
31424;SDS011;18054;51.572;7.372;2024-02-15T09:52:27;8.50;;;2.10;;
31424;SDS011;18054;51.572;7.372;2024-02-15T09:55:00;12.10;;;2.80;;
31424;SDS011;18054;51.572;7.372;2024-02-15T09:57:31;13.23;;;4.43;;
31424;SDS011;18054;51.572;7.372;2024-02-15T09:59:59;14.70;;;3.08;;
31424;SDS011;18054;51.572;7.372;2024-02-15T10:02:29;8.88;;;2.20;;
31424;SDS011;18054;51.572;7.372;2024-02-15T10:04:58;9.10;;;2.60;;
31424;SDS011;18054;51.572;7.372;2024-02-15T10:09:54;14.30;;;2.38;;
31424;SDS011;18054;51.572;7.372;2024-02-15T10:12:31;9.10;;;2.38;;
31424;SDS011;18054;51.572;7.372;2024-02-15T10:15:04;12.07;;;3.40;;
31424;SDS011;18054;51.572;7.372;2024-02-15T10:17:34;10.98;;;3.42;;
31424;SDS011;18054;51.572;7.372;2024-02-15T10:20:03;12.63;;;3.45;;
31424;SDS011;18054;51.572;7.372;2024-02-15T10:22:31;13.48;;;2.30;;
31424;SDS011;18054;51.572;7.372;2024-02-15T10:30:00;10.15;;;2.88;;
31424;SDS011;18054;51.572;7.372;2024-02-15T10:32:42;11.30;;;2.90;;
31424;SDS011;18054;51.572;7.372;2024-02-15T10:35:10;14.20;;;2.92;;
31424;SDS011;18054;51.572;7.372;2024-02-15T10:37:42;9.75;;;1.92;;
31424;SDS011;18054;51.572;7.372;2024-02-15T10:40:10;8.05;;;2.00;;
31424;SDS011;18054;51.572;7.372;2024-02-15T10:42:40;7.43;;;1.95;;
31424;SDS011;18054;51.572;7.372;2024-02-15T10:45:10;11.23;;;2.25;;
31424;SDS011;18054;51.572;7.372;2024-02-15T10:47:39;10.63;;;2.30;;
31424;SDS011;18054;51.572;7.372;2024-02-15T10:50:07;6.22;;;1.50;;
31424;SDS011;18054;51.572;7.372;2024-02-15T10:52:39;5.15;;;1.77;;
31424;SDS011;18054;51.572;7.372;2024-02-15T10:55:08;8.43;;;1.58;;
31424;SDS011;18054;51.572;7.372;2024-02-15T10:57:42;20.33;;;1.85;;
31424;SDS011;18054;51.572;7.372;2024-02-15T11:00:13;8.95;;;2.05;;
31424;SDS011;18054;51.572;7.372;2024-02-15T11:02:53;10.90;;;1.95;;
31424;SDS011;18054;51.572;7.372;2024-02-15T11:05:22;8.80;;;2.45;;
31424;SDS011;18054;51.572;7.372;2024-02-15T11:07:50;11.40;;;3.08;;
31424;SDS011;18054;51.572;7.372;2024-02-15T11:10:20;13.90;;;2.70;;
31424;SDS011;18054;51.572;7.372;2024-02-15T11:18:02;8.70;;;2.17;;
31424;SDS011;18054;51.572;7.372;2024-02-15T11:20:49;7.55;;;1.92;;
31424;SDS011;18054;51.572;7.372;2024-02-15T11:23:24;9.82;;;1.65;;
31424;SDS011;18054;51.572;7.372;2024-02-15T11:26:02;6.95;;;1.65;;
31424;SDS011;18054;51.572;7.372;2024-02-15T11:28:36;6.10;;;1.75;;
31424;SDS011;18054;51.572;7.372;2024-02-15T11:31:06;7.80;;;1.63;;
31424;SDS011;18054;51.572;7.372;2024-02-15T11:33:36;7.97;;;1.83;;
31424;SDS011;18054;51.572;7.372;2024-02-15T11:36:05;5.30;;;1.52;;
31424;SDS011;18054;51.572;7.372;2024-02-15T11:38:34;8.30;;;1.50;;
31424;SDS011;18054;51.572;7.372;2024-02-15T11:41:02;9.32;;;1.77;;
31424;SDS011;18054;51.572;7.372;2024-02-15T11:43:48;9.32;;;1.63;;
31424;SDS011;18054;51.572;7.372;2024-02-15T11:46:23;15.00;;;3.35;;
31424;SDS011;18054;51.572;7.372;2024-02-15T11:48:53;9.57;;;1.30;;
31424;SDS011;18054;51.572;7.372;2024-02-15T11:51:26;10.45;;;1.90;;
31424;SDS011;18054;51.572;7.372;2024-02-15T11:54:04;6.78;;;1.60;;
31424;SDS011;18054;51.572;7.372;2024-02-15T11:59:18;6.07;;;1.48;;
31424;SDS011;18054;51.572;7.372;2024-02-15T12:01:55;9.52;;;1.30;;
31424;SDS011;18054;51.572;7.372;2024-02-15T12:04:42;7.40;;;1.73;;
31424;SDS011;18054;51.572;7.372;2024-02-15T12:07:27;11.50;;;2.33;;
31424;SDS011;18054;51.572;7.372;2024-02-15T12:10:16;20.30;;;1.65;;
31424;SDS011;18054;51.572;7.372;2024-02-15T12:13:01;15.40;;;2.22;;
31424;SDS011;18054;51.572;7.372;2024-02-15T12:15:57;5.00;;;1.40;;
31424;SDS011;18054;51.572;7.372;2024-02-15T12:18:42;6.57;;;1.63;;
31424;SDS011;18054;51.572;7.372;2024-02-15T12:21:13;9.95;;;1.75;;
31424;SDS011;18054;51.572;7.372;2024-02-15T12:23:42;4.40;;;1.33;;
31424;SDS011;18054;51.572;7.372;2024-02-15T12:26:10;10.10;;;2.17;;
31424;SDS011;18054;51.572;7.372;2024-02-15T12:28:41;10.32;;;1.88;;
31424;SDS011;18054;51.572;7.372;2024-02-15T12:31:13;7.72;;;1.60;;
31424;SDS011;18054;51.572;7.372;2024-02-15T12:33:41;19.70;;;1.83;;
31424;SDS011;18054;51.572;7.372;2024-02-15T12:36:09;7.85;;;1.75;;
31424;SDS011;18054;51.572;7.372;2024-02-15T12:38:38;11.82;;;1.35;;
31424;SDS011;18054;51.572;7.372;2024-02-15T12:41:17;19.08;;;1.83;;
31424;SDS011;18054;51.572;7.372;2024-02-15T12:43:45;8.13;;;2.38;;
31424;SDS011;18054;51.572;7.372;2024-02-15T12:46:17;6.70;;;2.17;;
31424;SDS011;18054;51.572;7.372;2024-02-15T12:48:45;7.78;;;1.73;;
31424;SDS011;18054;51.572;7.372;2024-02-15T12:51:13;12.00;;;1.83;;
31424;SDS011;18054;51.572;7.372;2024-02-15T12:53:42;7.50;;;1.38;;
31424;SDS011;18054;51.572;7.372;2024-02-15T12:56:10;7.20;;;1.60;;
31424;SDS011;18054;51.572;7.372;2024-02-15T12:58:50;5.30;;;1.45;;
31424;SDS011;18054;51.572;7.372;2024-02-15T13:01:18;6.57;;;1.75;;
31424;SDS011;18054;51.572;7.372;2024-02-15T13:03:47;9.52;;;1.63;;
31424;SDS011;18054;51.572;7.372;2024-02-15T13:06:16;10.90;;;2.75;;
31424;SDS011;18054;51.572;7.372;2024-02-15T13:08:46;8.18;;;1.60;;
31424;SDS011;18054;51.572;7.372;2024-02-15T13:11:15;5.63;;;1.50;;
31424;SDS011;18054;51.572;7.372;2024-02-15T13:13:43;6.13;;;1.52;;
31424;SDS011;18054;51.572;7.372;2024-02-15T13:16:10;6.82;;;1.98;;
31424;SDS011;18054;51.572;7.372;2024-02-15T13:18:40;7.60;;;2.17;;
31424;SDS011;18054;51.572;7.372;2024-02-15T13:21:08;6.90;;;1.40;;
31424;SDS011;18054;51.572;7.372;2024-02-15T13:23:37;9.73;;;2.20;;
31424;SDS011;18054;51.572;7.372;2024-02-15T13:26:06;4.68;;;1.35;;
31424;SDS011;18054;51.572;7.372;2024-02-15T13:28:34;8.32;;;2.28;;
31424;SDS011;18054;51.572;7.372;2024-02-15T13:31:02;4.40;;;1.40;;
31424;SDS011;18054;51.572;7.372;2024-02-15T13:33:30;6.20;;;1.38;;
31424;SDS011;18054;51.572;7.372;2024-02-15T13:35:59;9.65;;;1.33;;
31424;SDS011;18054;51.572;7.372;2024-02-15T13:38:28;6.57;;;1.75;;
31424;SDS011;18054;51.572;7.372;2024-02-15T13:40:56;5.97;;;1.30;;
31424;SDS011;18054;51.572;7.372;2024-02-15T13:43:29;5.47;;;1.40;;
31424;SDS011;18054;51.572;7.372;2024-02-15T13:45:58;13.48;;;1.52;;
31424;SDS011;18054;51.572;7.372;2024-02-15T13:48:27;6.97;;;1.50;;
31424;SDS011;18054;51.572;7.372;2024-02-15T13:50:56;10.20;;;1.40;;
31424;SDS011;18054;51.572;7.372;2024-02-15T13:53:24;9.30;;;1.33;;
31424;SDS011;18054;51.572;7.372;2024-02-15T13:55:52;9.93;;;1.30;;
31424;SDS011;18054;51.572;7.372;2024-02-15T13:58:20;7.78;;;1.45;;
31424;SDS011;18054;51.572;7.372;2024-02-15T14:00:49;8.63;;;1.50;;
31424;SDS011;18054;51.572;7.372;2024-02-15T14:03:18;6.45;;;1.65;;
31424;SDS011;18054;51.572;7.372;2024-02-15T14:05:48;6.68;;;1.42;;
31424;SDS011;18054;51.572;7.372;2024-02-15T14:08:16;6.95;;;1.58;;
31424;SDS011;18054;51.572;7.372;2024-02-15T14:10:47;4.05;;;1.20;;
31424;SDS011;18054;51.572;7.372;2024-02-15T14:13:14;5.05;;;1.27;;
31424;SDS011;18054;51.572;7.372;2024-02-15T14:15:42;6.70;;;1.33;;
31424;SDS011;18054;51.572;7.372;2024-02-15T14:18:12;7.57;;;1.50;;
31424;SDS011;18054;51.572;7.372;2024-02-15T14:20:42;5.30;;;1.33;;
31424;SDS011;18054;51.572;7.372;2024-02-15T14:23:10;6.57;;;1.45;;
31424;SDS011;18054;51.572;7.372;2024-02-15T14:25:41;4.70;;;1.40;;
31424;SDS011;18054;51.572;7.372;2024-02-15T14:28:09;5.82;;;1.15;;
31424;SDS011;18054;51.572;7.372;2024-02-15T14:30:37;5.13;;;1.33;;
31424;SDS011;18054;51.572;7.372;2024-02-15T14:33:24;5.95;;;1.60;;
31424;SDS011;18054;51.572;7.372;2024-02-15T14:35:59;4.65;;;1.33;;
31424;SDS011;18054;51.572;7.372;2024-02-15T14:38:28;18.42;;;2.97;;
31424;SDS011;18054;51.572;7.372;2024-02-15T14:40:56;5.00;;;1.55;;
31424;SDS011;18054;51.572;7.372;2024-02-15T14:43:27;4.88;;;1.40;;
31424;SDS011;18054;51.572;7.372;2024-02-15T14:45:56;5.35;;;1.33;;
31424;SDS011;18054;51.572;7.372;2024-02-15T14:48:26;6.90;;;1.80;;
31424;SDS011;18054;51.572;7.372;2024-02-15T14:50:55;6.70;;;1.50;;
31424;SDS011;18054;51.572;7.372;2024-02-15T14:53:23;9.55;;;1.85;;
31424;SDS011;18054;51.572;7.372;2024-02-15T14:55:51;8.48;;;1.50;;
31424;SDS011;18054;51.572;7.372;2024-02-15T15:00:49;9.30;;;1.30;;
31424;SDS011;18054;51.572;7.372;2024-02-15T15:03:29;5.85;;;1.38;;
31424;SDS011;18054;51.572;7.372;2024-02-15T15:05:58;12.93;;;1.73;;
31424;SDS011;18054;51.572;7.372;2024-02-15T15:08:43;9.05;;;1.50;;
31424;SDS011;18054;51.572;7.372;2024-02-15T15:11:28;13.30;;;1.65;;
31424;SDS011;18054;51.572;7.372;2024-02-15T15:14:14;4.20;;;1.70;;
31424;SDS011;18054;51.572;7.372;2024-02-15T15:16:41;9.57;;;1.83;;
31424;SDS011;18054;51.572;7.372;2024-02-15T15:19:11;6.68;;;1.75;;
31424;SDS011;18054;51.572;7.372;2024-02-15T15:21:38;5.80;;;1.83;;
31424;SDS011;18054;51.572;7.372;2024-02-15T15:24:06;8.13;;;1.67;;
31424;SDS011;18054;51.572;7.372;2024-02-15T15:26:36;5.05;;;1.63;;
31424;SDS011;18054;51.572;7.372;2024-02-15T15:31:32;11.23;;;2.40;;
31424;SDS011;18054;51.572;7.372;2024-02-15T15:34:01;6.65;;;1.95;;
31424;SDS011;18054;51.572;7.372;2024-02-15T15:36:31;7.28;;;1.83;;
31424;SDS011;18054;51.572;7.372;2024-02-15T15:38:59;5.75;;;1.77;;
31424;SDS011;18054;51.572;7.372;2024-02-15T15:41:35;6.20;;;1.88;;
31424;SDS011;18054;51.572;7.372;2024-02-15T15:44:04;9.07;;;2.50;;
31424;SDS011;18054;51.572;7.372;2024-02-15T15:46:32;6.22;;;1.40;;
31424;SDS011;18054;51.572;7.372;2024-02-15T15:49:00;10.68;;;2.28;;
31424;SDS011;18054;51.572;7.372;2024-02-15T15:51:28;7.45;;;1.75;;
31424;SDS011;18054;51.572;7.372;2024-02-15T15:56:25;12.10;;;1.85;;
31424;SDS011;18054;51.572;7.372;2024-02-15T15:58:53;7.80;;;1.40;;
31424;SDS011;18054;51.572;7.372;2024-02-15T16:01:24;5.18;;;1.70;;
31424;SDS011;18054;51.572;7.372;2024-02-15T16:06:21;10.13;;;2.08;;
31424;SDS011;18054;51.572;7.372;2024-02-15T16:08:49;17.77;;;3.65;;
31424;SDS011;18054;51.572;7.372;2024-02-15T16:11:17;11.02;;;2.40;;
31424;SDS011;18054;51.572;7.372;2024-02-15T16:13:46;8.65;;;1.30;;